Аэропорт: Национальный аэропорт Минск. Минск

ICAO: UMMS

METAR:
2021-07-28 14:30:00
UMMS 281430Z 23005MPS 200V260 9999 SCT051CB 27/18 Q1010 RETS R13L/CLRD// R13R/////// TEMPO VRB14MPS 2100 -TSRA SQ
METAR:
2021-07-28 11:11:00
TAF UMMS 281111Z 2811/2912 24005MPS 9999 BKN020 TEMPO 2811/2817 VRB14MPS 2100 -TSRA SQ BKN007 BKN025CB BECMG 2817/2818 VRB02MPS 7000 SCT030 TEMPO 2818/2906 0300 FG BKN002 BECMG 2906/2908 27006G11MPS 9999 TEMPO 2908/2912 VRB14MPS 1500 TSRA SQ BKN007 BKN025CB